Time;durP1;ratioP1;P1;durP2;ratioP2;P2;SDS_P1;SDS_P2;PMS_P1;PMS_P2;Temp;Humidity;BMP_temperature;BMP_pressure;BME280_temperature;BME280_humidity;BME280_pressure;Samples;Min_cycle;Max_cycle;Signal;HPM_P1;HPM_P2
2023/04/09 00:02:11;;;;;;;0.77;0.77;;;17.40;66.10;;;;;;5026579;28;20091;-81
2023/04/09 00:04:36;;;;;;;0.85;0.60;;;17.40;66.10;;;;;;5046904;28;20052;-81
2023/04/09 00:07:02;;;;;;;0.60;0.60;;;17.40;66.00;;;;;;5063794;28;20033;-82
2023/04/09 00:09:27;;;;;;;0.65;0.65;;;17.40;66.00;;;;;;5062066;28;20075;-80
2023/04/09 00:11:53;;;;;;;0.60;0.60;;;17.40;66.00;;;;;;5030584;28;20395;-82
2023/04/09 00:14:18;;;;;;;0.70;0.50;;;17.40;66.00;;;;;;5047145;28;20039;-81
2023/04/09 00:16:44;;;;;;;0.90;0.90;;;17.40;66.00;;;;;;5048967;28;20049;-81
2023/04/09 00:19:10;;;;;;;0.80;0.80;;;17.40;66.10;;;;;;5064638;28;20086;-82
2023/04/09 00:21:36;;;;;;;0.40;0.40;;;17.40;66.00;;;;;;5045347;28;20051;-82
2023/04/09 00:24:02;;;;;;;1.00;0.50;;;17.40;66.00;;;;;;5012675;28;20044;-82
2023/04/09 00:26:27;;;;;;;0.47;0.47;;;17.40;66.00;;;;;;5046414;28;20051;-82
2023/04/09 00:28:54;;;;;;;0.40;0.40;;;17.40;66.00;;;;;;5019153;28;20128;-82
2023/04/09 00:31:19;;;;;;;0.50;0.50;;;17.40;66.00;;;;;;5048146;28;20040;-82
2023/04/09 00:33:45;;;;;;;0.68;0.68;;;17.30;65.90;;;;;;5048004;28;20497;-82
2023/04/09 00:36:10;;;;;;;1.00;0.68;;;17.30;66.00;;;;;;5047535;28;20119;-81
2023/04/09 00:38:36;;;;;;;0.60;0.60;;;17.30;65.90;;;;;;5030301;28;20101;-82
2023/04/09 00:41:01;;;;;;;0.50;0.50;;;17.30;65.90;;;;;;5064382;28;20032;-82
2023/04/09 00:43:27;;;;;;;0.52;0.52;;;17.30;65.90;;;;;;5046300;28;20545;-82
2023/04/09 00:45:53;;;;;;;0.75;0.75;;;17.30;65.90;;;;;;5047558;28;20528;-82
2023/04/09 00:48:18;;;;;;;0.93;0.80;;;17.30;65.90;;;;;;5046466;28;20044;-81
2023/04/09 00:50:44;;;;;;;0.50;0.50;;;17.30;65.90;;;;;;5012666;28;20129;-82
2023/04/09 00:53:10;;;;;;;0.60;0.60;;;17.40;66.00;;;;;;5047383;28;20041;-82
2023/04/09 00:55:35;;;;;;;0.60;0.60;;;17.30;65.90;;;;;;5043683;28;20505;-81
2023/04/09 00:58:01;;;;;;;0.80;0.80;;;17.30;65.90;;;;;;5044897;28;20075;-82
2023/04/09 01:00:27;;;;;;;0.60;0.60;;;17.30;65.80;;;;;;5026863;28;20133;-81
2023/04/09 01:02:54;;;;;;;0.70;0.70;;;17.30;65.90;;;;;;5063968;28;20068;-81
2023/04/09 01:05:20;;;;;;;0.70;0.70;;;17.30;65.80;;;;;;5029720;28;20042;-80
2023/04/09 01:08:18;;;;;;;0.90;0.90;;;17.30;65.80;;;;;;5047255;28;20049;-81
2023/04/09 01:10:53;;;;;;;0.70;0.70;;;17.30;65.70;;;;;;5032965;28;20044;-81
2023/04/09 01:13:24;;;;;;;0.70;0.70;;;17.30;65.80;;;;;;5050757;28;20059;-82
2023/04/09 01:15:57;;;;;;;1.60;0.60;;;17.30;65.80;;;;;;5050077;28;20036;-82
2023/04/09 01:18:47;;;;;;;0.77;0.77;;;17.30;65.80;;;;;;5033624;28;20065;-81
2023/04/09 01:21:13;;;;;;;0.55;0.55;;;17.30;65.80;;;;;;5049729;28;20040;-81
2023/04/09 01:23:54;;;;;;;0.50;0.50;;;17.30;65.80;;;;;;5032512;28;20842;-82
2023/04/09 01:26:50;;;;;;;0.60;0.60;;;17.30;65.90;;;;;;5048949;28;20059;-81
2023/04/09 01:29:16;;;;;;;0.82;0.82;;;17.30;65.90;;;;;;5050024;28;20127;-81
2023/04/09 01:31:42;;;;;;;0.50;0.50;;;17.30;65.90;;;;;;5016176;28;20127;-82
2023/04/09 01:34:07;;;;;;;0.73;0.73;;;17.30;65.90;;;;;;5035134;28;20044;-81
2023/04/09 01:36:33;;;;;;;0.60;0.60;;;17.20;65.80;;;;;;5032199;28;20561;-81
2023/04/09 01:39:02;;;;;;;0.90;0.52;;;17.20;65.90;;;;;;5030553;28;20111;-81
2023/04/09 01:41:27;;;;;;;0.60;0.60;;;17.30;65.80;;;;;;5046369;28;20119;-81
2023/04/09 01:43:53;;;;;;;0.45;0.45;;;17.30;65.70;;;;;;5050444;28;20513;-82
2023/04/09 01:46:18;;;;;;;0.77;0.77;;;17.20;65.70;;;;;;5049434;28;20040;-81
2023/04/09 01:48:45;;;;;;;0.60;0.60;;;17.20;65.70;;;;;;5049197;28;20072;-81
2023/04/09 01:51:13;;;;;;;0.40;0.40;;;17.20;65.80;;;;;;5036061;28;20043;-82
2023/04/09 01:53:38;;;;;;;0.70;0.50;;;17.20;65.80;;;;;;5048021;28;20052;-81
2023/04/09 01:56:04;;;;;;;0.65;0.65;;;17.20;65.80;;;;;;5034194;28;20041;-81
2023/04/09 01:58:32;;;;;;;0.50;0.50;;;17.20;65.70;;;;;;5047787;28;20041;-81
2023/04/09 02:01:20;;;;;;;0.73;0.73;;;17.20;65.80;;;;;;5051428;28;20133;-82
2023/04/09 02:03:47;;;;;;;0.63;0.60;;;17.20;65.70;;;;;;5047944;28;20128;-82
2023/04/09 02:06:19;;;;;;;0.60;0.60;;;17.20;65.70;;;;;;5052973;28;20044;-82
2023/04/09 02:08:45;;;;;;;0.57;0.52;;;17.20;65.70;;;;;;5042848;28;20509;-81
2023/04/09 02:11:11;;;;;;;0.68;0.68;;;17.20;65.70;;;;;;5018686;28;20048;-81
2023/04/09 02:13:37;;;;;;;1.30;0.70;;;17.20;65.60;;;;;;5033009;28;20052;-82
2023/04/09 02:16:02;;;;;;;0.68;0.68;;;17.20;65.60;;;;;;5050553;28;20047;-82
2023/04/09 02:18:29;;;;;;;1.00;0.80;;;17.20;65.60;;;;;;5050003;28;20034;-81
2023/04/09 02:20:55;;;;;;;0.50;0.50;;;17.20;65.60;;;;;;5047740;28;20055;-82
2023/04/09 02:23:21;;;;;;;0.60;0.60;;;17.20;65.60;;;;;;5012471;28;20794;-81
2023/04/09 02:25:46;;;;;;;0.52;0.52;;;17.20;65.70;;;;;;5049816;28;20501;-81
2023/04/09 02:28:12;;;;;;;0.50;0.50;;;17.20;65.70;;;;;;5031868;28;20064;-82
2023/04/09 02:30:38;;;;;;;0.50;0.50;;;17.20;65.60;;;;;;5042796;28;20056;-81
2023/04/09 02:33:03;;;;;;;0.50;0.50;;;17.20;65.60;;;;;;5030046;28;20033;-82
2023/04/09 02:35:29;;;;;;;0.60;0.60;;;17.20;65.70;;;;;;5018430;28;20065;-81
2023/04/09 02:37:55;;;;;;;0.52;0.52;;;17.20;65.70;;;;;;5029616;28;20048;-82
2023/04/09 02:40:20;;;;;;;0.65;0.65;;;17.10;65.60;;;;;;5027274;28;20068;-81
2023/04/09 02:42:46;;;;;;;0.60;0.60;;;17.10;65.60;;;;;;5028184;28;20159;-82
2023/04/09 02:45:11;;;;;;;1.00;0.90;;;17.20;65.70;;;;;;5028210;28;20064;-86
2023/04/09 02:47:37;;;;;;;0.70;0.70;;;17.20;66.50;;;;;;5021311;28;20036;-86
2023/04/09 02:50:03;;;;;;;0.60;0.60;;;17.20;65.60;;;;;;5066011;28;20044;-85
2023/04/09 02:52:29;;;;;;;0.60;0.60;;;17.10;65.60;;;;;;5031759;28;20501;-86
2023/04/09 02:54:54;;;;;;;2.05;0.70;;;17.20;65.60;;;;;;5064182;28;20128;-86
2023/04/09 02:57:20;;;;;;;0.70;0.70;;;17.10;65.60;;;;;;5046868;28;20489;-81
2023/04/09 02:59:45;;;;;;;0.60;0.60;;;17.20;65.60;;;;;;5065601;28;20397;-86
2023/04/09 03:02:11;;;;;;;0.70;0.70;;;17.20;65.60;;;;;;5049065;28;20072;-86
2023/04/09 03:04:37;;;;;;;0.93;0.68;;;17.10;65.50;;;;;;5063349;28;20036;-85
2023/04/09 03:07:03;;;;;;;0.50;0.50;;;17.10;65.60;;;;;;5066194;28;20040;-85
2023/04/09 03:09:29;;;;;;;0.50;0.50;;;17.20;65.60;;;;;;5046972;28;20060;-86
2023/04/09 03:11:56;;;;;;;0.80;0.80;;;17.10;65.50;;;;;;5049166;28;20094;-86
2023/04/09 03:14:24;;;;;;;0.43;0.43;;;17.10;65.50;;;;;;5031554;28;20036;-85
2023/04/09 03:16:50;;;;;;;0.60;0.60;;;17.10;65.50;;;;;;5066242;28;20123;-86
2023/04/09 03:19:15;;;;;;;0.50;0.50;;;17.10;65.50;;;;;;5046808;28;20120;-85
2023/04/09 03:21:41;;;;;;;0.57;0.57;;;17.10;66.30;;;;;;5046885;28;22622;-86
2023/04/09 03:24:07;;;;;;;0.50;0.50;;;17.10;65.50;;;;;;5064826;28;20044;-86
2023/04/09 03:26:35;;;;;;;0.60;0.60;;;17.10;65.50;;;;;;5045409;28;20071;-86
2023/04/09 03:29:04;;;;;;;0.68;0.65;;;17.10;65.50;;;;;;5047899;28;20510;-86
2023/04/09 03:31:30;;;;;;;0.63;0.60;;;17.10;65.50;;;;;;5045905;28;20048;-86
2023/04/09 03:33:56;;;;;;;0.60;0.60;;;17.10;66.30;;;;;;5065086;28;20037;-86
2023/04/09 03:36:21;;;;;;;0.60;0.60;;;17.10;65.50;;;;;;5030314;28;20497;-86
2023/04/09 03:38:47;;;;;;;0.70;0.70;;;17.10;65.50;;;;;;5047434;28;20037;-86
2023/04/09 03:41:13;;;;;;;0.65;0.65;;;17.10;65.40;;;;;;5048684;28;20098;-86
2023/04/09 03:43:38;;;;;;;0.63;0.63;;;17.10;65.40;;;;;;5046527;28;20879;-86
2023/04/09 03:46:30;;;;;;;0.82;0.82;;;17.00;65.40;;;;;;5047779;28;20106;-86
2023/04/09 03:48:55;;;;;;;0.70;0.70;;;17.10;65.50;;;;;;5044333;28;20402;-86
2023/04/09 03:51:21;;;;;;;0.50;0.50;;;17.10;65.40;;;;;;5014072;28;20047;-86
2023/04/09 03:53:47;;;;;;;0.60;0.60;;;17.10;65.50;;;;;;5046336;28;20063;-85
2023/04/09 03:56:12;;;;;;;0.73;0.73;;;17.10;65.50;;;;;;5048196;28;20067;-85
2023/04/09 03:58:38;;;;;;;0.40;0.40;;;17.10;65.40;;;;;;5030089;28;20094;-86
2023/04/09 04:01:03;;;;;;;0.65;0.65;;;17.10;65.40;;;;;;5048570;28;20414;-86
2023/04/09 04:03:29;;;;;;;0.50;0.50;;;17.00;65.30;;;;;;5062552;28;20044;-85
2023/04/09 04:06:04;;;;;;;0.57;0.57;;;17.10;65.40;;;;;;5029821;28;20497;-86
2023/04/09 04:08:29;;;;;;;1.00;0.90;;;17.00;65.30;;;;;;5062597;28;20559;-86
2023/04/09 04:10:55;;;;;;;0.60;0.60;;;17.10;65.30;;;;;;5060835;28;20033;-86
2023/04/09 04:13:21;;;;;;;0.50;0.50;;;17.10;65.30;;;;;;5048559;28;20595;-85
2023/04/09 04:15:46;;;;;;;0.60;0.60;;;17.10;65.30;;;;;;5063207;28;20058;-86
2023/04/09 04:18:12;;;;;;;0.68;0.68;;;17.00;65.20;;;;;;5047908;28;20052;-86
2023/04/09 04:20:38;;;;;;;0.60;0.60;;;17.10;65.30;;;;;;5014043;28;20461;-85
2023/04/09 04:23:03;;;;;;;0.77;0.70;;;17.00;65.20;;;;;;5059466;28;20049;-86
2023/04/09 04:25:29;;;;;;;0.70;0.70;;;17.00;65.20;;;;;;5060854;28;20521;-85
2023/04/09 04:27:55;;;;;;;0.68;0.68;;;17.00;65.20;;;;;;5065910;28;20114;-86
2023/04/09 04:30:21;;;;;;;0.80;0.80;;;17.00;66.00;;;;;;5060956;28;20406;-86
2023/04/09 04:32:47;;;;;;;0.63;0.63;;;17.00;65.20;;;;;;5061634;28;20780;-85
2023/04/09 04:35:13;;;;;;;0.63;0.63;;;17.00;65.20;;;;;;5047740;28;20639;-86
2023/04/09 04:37:39;;;;;;;0.63;0.63;;;17.00;65.20;;;;;;5065393;28;20136;-85
2023/04/09 04:40:05;;;;;;;0.50;0.50;;;17.00;65.10;;;;;;5061422;28;20040;-85
2023/04/09 04:42:31;;;;;;;0.60;0.60;;;17.00;65.10;;;;;;5063927;28;20079;-84
2023/04/09 04:44:56;;;;;;;0.60;0.60;;;17.00;65.20;;;;;;5046358;28;20056;-85
2023/04/09 04:47:22;;;;;;;0.73;0.70;;;17.00;65.10;;;;;;5063859;28;20041;-86
2023/04/09 04:49:48;;;;;;;0.50;0.50;;;17.00;65.10;;;;;;5045534;28;22093;-85
2023/04/09 04:52:13;;;;;;;0.80;0.80;;;17.00;65.10;;;;;;5064278;28;20048;-86
2023/04/09 04:54:39;;;;;;;0.63;0.63;;;17.00;65.10;;;;;;5062423;28;20059;-86
2023/04/09 04:57:05;;;;;;;0.85;0.85;;;17.00;65.10;;;;;;5063097;28;20489;-85
2023/04/09 04:59:30;;;;;;;0.55;0.55;;;17.00;65.10;;;;;;5061445;28;20419;-86
2023/04/09 05:01:56;;;;;;;0.63;0.63;;;16.90;65.00;;;;;;5043841;28;20048;-85
2023/04/09 05:04:21;;;;;;;0.77;0.77;;;17.00;65.00;;;;;;5029093;28;20056;-85
2023/04/09 05:06:47;;;;;;;0.68;0.68;;;17.00;65.00;;;;;;5046272;28;20523;-86
2023/04/09 05:09:12;;;;;;;0.60;0.60;;;17.00;65.00;;;;;;5027540;28;20043;-86
2023/04/09 05:11:38;;;;;;;0.80;0.80;;;17.00;65.10;;;;;;5052123;28;20049;-86
2023/04/09 05:14:05;;;;;;;0.80;0.80;;;17.00;65.00;;;;;;5029487;28;20078;-86
2023/04/09 05:16:30;;;;;;;0.70;0.70;;;17.00;65.10;;;;;;5029691;28;20033;-85
2023/04/09 05:18:56;;;;;;;0.95;0.88;;;16.90;65.00;;;;;;5047146;28;20413;-85
2023/04/09 05:21:21;;;;;;;0.60;0.60;;;17.00;65.00;;;;;;5045461;28;20060;-86
2023/04/09 05:23:47;;;;;;;0.60;0.60;;;17.00;64.90;;;;;;5028040;28;20441;-85
2023/04/09 05:26:12;;;;;;;0.73;0.73;;;17.00;64.90;;;;;;5062735;28;20497;-85
2023/04/09 05:28:38;;;;;;;0.60;0.60;;;17.00;64.90;;;;;;5053425;28;20166;-85
2023/04/09 05:31:04;;;;;;;0.57;0.57;;;17.00;65.00;;;;;;5011613;28;20045;-86
2023/04/09 05:33:34;;;;;;;0.60;0.60;;;17.00;64.90;;;;;;5040389;28;20052;-84
2023/04/09 05:35:59;;;;;;;0.60;0.60;;;17.00;64.90;;;;;;5062576;28;20044;-85
2023/04/09 05:38:25;;;;;;;0.65;0.60;;;17.00;64.90;;;;;;5030983;28;20036;-85
2023/04/09 05:40:50;;;;;;;0.70;0.70;;;17.00;64.80;;;;;;5070071;28;20141;-86
2023/04/09 05:43:16;;;;;;;0.52;0.52;;;17.00;64.90;;;;;;5009770;28;20050;-85
2023/04/09 05:45:42;;;;;;;0.50;0.50;;;17.00;64.90;;;;;;5040737;28;20545;-85
2023/04/09 05:48:07;;;;;;;0.43;0.43;;;16.90;64.90;;;;;;5051864;28;20056;-85
2023/04/09 05:50:33;;;;;;;0.60;0.60;;;16.90;64.90;;;;;;5031656;28;20045;-85
2023/04/09 05:52:58;;;;;;;0.50;0.50;;;16.90;64.90;;;;;;5041499;28;20025;-86
2023/04/09 05:55:24;;;;;;;0.75;0.75;;;16.90;64.90;;;;;;5021202;28;20875;-85
2023/04/09 05:57:51;;;;;;;0.55;0.55;;;17.00;64.80;;;;;;5012723;28;20047;-85
2023/04/09 06:00:17;;;;;;;0.60;0.57;;;17.00;64.80;;;;;;5037063;28;20536;-86
2023/04/09 06:02:43;;;;;;;0.60;0.60;;;17.00;64.60;;;;;;5034757;28;20040;-87
2023/04/09 06:05:09;;;;;;;0.60;0.60;;;17.00;64.70;;;;;;5033536;28;20067;-85
2023/04/09 06:07:35;;;;;;;0.60;0.60;;;16.90;64.60;;;;;;5048354;28;20513;-86
2023/04/09 06:10:01;;;;;;;0.70;0.70;;;17.00;64.70;;;;;;5046522;28;20128;-86
2023/04/09 06:12:26;;;;;;;0.65;0.65;;;16.90;64.60;;;;;;5046516;28;20418;-86
2023/04/09 06:14:52;;;;;;;0.50;0.50;;;17.00;64.60;;;;;;5043578;28;20053;-85
2023/04/09 06:17:17;;;;;;;0.70;0.70;;;16.90;64.60;;;;;;5022336;28;20559;-85
2023/04/09 06:19:43;;;;;;;0.70;0.70;;;17.00;64.60;;;;;;5039544;28;20479;-86
2023/04/09 06:22:09;;;;;;;0.90;0.90;;;16.90;64.50;;;;;;5042735;28;20045;-85
2023/04/09 06:24:35;;;;;;;0.75;0.75;;;17.00;64.60;;;;;;5017292;28;20352;-85
2023/04/09 06:27:01;;;;;;;0.55;0.55;;;17.00;64.60;;;;;;5049270;28;20132;-85
2023/04/09 06:29:26;;;;;;;0.60;0.60;;;17.00;64.60;;;;;;5057046;28;20053;-85
2023/04/09 06:31:52;;;;;;;0.68;0.68;;;17.00;64.50;;;;;;5028732;28;20430;-85
2023/04/09 06:34:18;;;;;;;0.80;0.80;;;17.00;64.50;;;;;;5046846;28;20515;-86
2023/04/09 06:36:44;;;;;;;0.50;0.50;;;17.00;64.50;;;;;;5039783;28;20045;-85
2023/04/09 06:39:09;;;;;;;0.82;0.82;;;17.00;64.60;;;;;;5045430;28;20395;-86
2023/04/09 06:41:35;;;;;;;0.70;0.70;;;17.00;64.40;;;;;;5027820;28;20029;-85
2023/04/09 06:44:00;;;;;;;0.77;0.77;;;17.00;64.40;;;;;;5055040;28;20458;-85
2023/04/09 06:46:26;;;;;;;0.80;0.80;;;17.00;64.30;;;;;;5035989;28;20043;-85
2023/04/09 06:48:52;;;;;;;0.60;0.60;;;17.00;64.30;;;;;;5018885;28;20053;-86
2023/04/09 06:51:18;;;;;;;0.63;0.63;;;17.00;64.30;;;;;;5046110;28;20044;-86
2023/04/09 06:53:43;;;;;;;0.63;0.63;;;17.10;64.30;;;;;;5024491;28;20041;-85
2023/04/09 06:56:09;;;;;;;0.70;0.70;;;17.00;64.30;;;;;;5037515;28;20048;-86
2023/04/09 06:58:35;;;;;;;0.50;0.50;;;17.00;64.40;;;;;;5044478;28;20043;-85
2023/04/09 07:01:00;;;;;;;0.73;0.73;;;16.90;64.50;;;;;;5029473;28;20087;-85
2023/04/09 07:03:26;;;;;;;0.77;0.77;;;16.90;64.50;;;;;;4997269;28;20088;-85
2023/04/09 07:05:53;;;;;;;1.38;0.93;;;16.90;64.50;;;;;;5016658;28;20041;-86
2023/04/09 07:08:18;;;;;;;0.65;0.65;;;16.90;64.50;;;;;;5059834;28;20076;-86
2023/04/09 07:10:46;;;;;;;0.57;0.57;;;16.90;64.50;;;;;;5042655;28;20447;-85
2023/04/09 07:13:11;;;;;;;0.70;0.70;;;16.90;64.50;;;;;;5036476;28;20036;-85
2023/04/09 07:15:37;;;;;;;0.60;0.60;;;16.90;64.60;;;;;;5044583;28;20091;-85
2023/04/09 07:18:03;;;;;;;0.77;0.77;;;16.90;64.60;;;;;;5013283;28;20352;-86
2023/04/09 07:20:28;;;;;;;0.60;0.60;;;16.90;64.70;;;;;;4998737;28;20069;-85
2023/04/09 07:22:54;;;;;;;0.60;0.60;;;16.90;64.60;;;;;;5044369;28;20087;-83
2023/04/09 07:25:20;;;;;;;0.70;0.70;;;17.00;64.50;;;;;;5029146;28;20045;-83
2023/04/09 07:27:45;;;;;;;0.70;0.70;;;16.90;64.50;;;;;;5036499;28;20077;-82
2023/04/09 07:30:11;;;;;;;0.68;0.68;;;16.90;64.70;;;;;;5028961;28;20049;-81
2023/04/09 07:32:37;;;;;;;0.80;0.80;;;16.90;64.80;;;;;;5028552;28;20461;-83
2023/04/09 07:35:04;;;;;;;0.60;0.60;;;17.00;65.10;;;;;;5042957;28;20075;-82
2023/04/09 07:37:30;;;;;;;0.70;0.70;;;16.90;65.70;;;;;;5017303;28;20032;-81
2023/04/09 07:39:55;;;;;;;0.82;0.82;;;17.00;65.00;;;;;;5024155;28;20033;-82
2023/04/09 07:42:21;;;;;;;0.80;0.80;;;17.00;65.00;;;;;;5029536;28;20048;-83
2023/04/09 07:44:47;;;;;;;0.73;0.73;;;17.00;65.10;;;;;;5035068;28;20048;-82
2023/04/09 07:47:12;;;;;;;1.10;1.00;;;17.00;65.00;;;;;;5034196;28;20510;-83
2023/04/09 07:49:38;;;;;;;1.90;0.80;;;16.90;64.90;;;;;;5043018;28;20052;-83
2023/04/09 07:52:04;;;;;;;0.70;0.70;;;17.00;64.90;;;;;;5027762;28;20071;-83
2023/04/09 07:54:32;;;;;;;1.20;0.70;;;17.00;64.90;;;;;;5024270;28;20159;-82
2023/04/09 07:56:58;;;;;;;1.00;0.45;;;17.00;65.00;;;;;;5041387;28;20183;-82
2023/04/09 07:59:24;;;;;;;0.50;0.50;;;17.00;65.00;;;;;;5031130;28;20589;-82
2023/04/09 08:01:49;;;;;;;0.60;0.60;;;17.00;65.00;;;;;;5043149;28;20045;-82
2023/04/09 08:04:15;;;;;;;0.60;0.60;;;17.00;65.00;;;;;;5028792;28;20061;-82
2023/04/09 08:06:41;;;;;;;0.60;0.60;;;17.00;65.90;;;;;;5027135;28;20525;-82
2023/04/09 08:09:06;;;;;;;0.50;0.50;;;17.00;65.10;;;;;;5006873;28;20063;-82
2023/04/09 08:11:32;;;;;;;0.65;0.65;;;17.00;65.10;;;;;;5042268;28;20448;-82
2023/04/09 08:14:00;;;;;;;0.70;0.70;;;17.00;65.20;;;;;;5054252;28;20076;-82
2023/04/09 08:16:26;;;;;;;0.70;0.70;;;17.00;65.10;;;;;;5045640;28;20125;-83
2023/04/09 08:18:52;;;;;;;0.70;0.70;;;17.10;65.10;;;;;;5033504;28;20160;-82
2023/04/09 08:21:18;;;;;;;0.55;0.55;;;17.10;65.10;;;;;;5042420;28;20498;-82
2023/04/09 08:23:44;;;;;;;0.90;0.90;;;17.10;65.00;;;;;;5008431;28;20045;-82
2023/04/09 08:26:09;;;;;;;0.68;0.68;;;17.10;65.00;;;;;;4993218;28;20049;-83
2023/04/09 08:28:35;;;;;;;0.80;0.80;;;17.10;65.00;;;;;;5045189;28;20051;-82
2023/04/09 08:31:00;;;;;;;0.70;0.70;;;17.20;65.00;;;;;;5026582;28;20060;-82
2023/04/09 08:33:26;;;;;;;0.50;0.50;;;17.20;64.90;;;;;;5032208;28;20047;-82
2023/04/09 08:35:52;;;;;;;0.50;0.50;;;17.20;64.80;;;;;;5061300;28;20041;-82
2023/04/09 08:38:20;;;;;;;0.60;0.60;;;17.20;64.60;;;;;;5041768;28;20433;-82
2023/04/09 08:40:46;;;;;;;1.02;0.50;;;17.30;64.60;;;;;;5008973;28;20052;-82
2023/04/09 08:43:15;;;;;;;0.57;0.57;;;17.30;64.70;;;;;;5041978;28;20048;-82
2023/04/09 08:45:41;;;;;;;1.50;0.70;;;17.30;64.70;;;;;;5033182;28;20060;-82
2023/04/09 08:48:07;;;;;;;0.70;0.70;;;17.30;64.70;;;;;;5026352;28;20079;-82
2023/04/09 08:50:33;;;;;;;0.65;0.65;;;17.40;64.70;;;;;;5010546;28;20037;-82
2023/04/09 08:52:59;;;;;;;0.70;0.70;;;17.40;64.70;;;;;;5043998;28;20162;-82
2023/04/09 08:55:25;;;;;;;0.60;0.60;;;17.40;64.60;;;;;;5009262;28;20052;-83
2023/04/09 08:57:50;;;;;;;0.60;0.60;;;17.40;64.60;;;;;;5009170;28;20037;-82
2023/04/09 09:00:16;;;;;;;0.50;0.50;;;17.40;64.70;;;;;;5006553;28;20502;-82
2023/04/09 09:03:07;;;;;;;0.50;0.50;;;17.40;64.60;;;;;;5025122;28;20418;-82
2023/04/09 09:05:43;;;;;;;0.60;0.60;;;17.40;64.70;;;;;;5038291;28;20048;-82
2023/04/09 09:08:13;;;;;;;0.50;0.50;;;17.50;64.80;;;;;;5043120;28;20526;-83
2023/04/09 09:10:43;;;;;;;1.23;0.85;;;17.50;64.60;;;;;;5028334;28;20049;-83
2023/04/09 09:13:25;;;;;;;1.00;1.00;;;17.50;65.00;;;;;;5034480;28;20425;-80
2023/04/09 09:15:54;;;;;;;0.60;0.60;;;17.60;65.20;;;;;;5035483;28;20056;-83
2023/04/09 09:18:20;;;;;;;0.90;0.88;;;17.60;65.10;;;;;;5008792;28;20490;-84
2023/04/09 09:20:46;;;;;;;0.90;0.90;;;17.60;65.30;;;;;;5036835;28;20037;-83
2023/04/09 09:23:12;;;;;;;0.60;0.60;;;17.70;65.00;;;;;;5040760;28;21038;-84
2023/04/09 09:25:40;;;;;;;0.63;0.63;;;17.70;65.00;;;;;;5037113;28;20171;-82
2023/04/09 09:28:10;;;;;;;0.63;0.63;;;17.80;64.90;;;;;;5037413;28;20510;-85
2023/04/09 09:30:37;;;;;;;0.70;0.70;;;17.80;65.10;;;;;;5038889;28;20041;-84
2023/04/09 09:33:10;;;;;;;0.77;0.70;;;17.80;64.90;;;;;;5029456;28;20040;-83
2023/04/09 09:35:49;;;;;;;0.50;0.50;;;17.80;64.80;;;;;;5027426;28;20056;-83
2023/04/09 09:38:15;;;;;;;0.60;0.60;;;17.90;64.90;;;;;;5039000;28;20068;-82
2023/04/09 09:40:41;;;;;;;0.65;0.65;;;17.80;64.70;;;;;;5014045;28;20130;-82
2023/04/09 09:43:07;;;;;;;0.70;0.70;;;17.90;64.80;;;;;;5040768;28;20580;-84
2023/04/09 09:45:32;;;;;;;0.70;0.60;;;17.90;64.60;;;;;;5027217;28;20060;-83
2023/04/09 09:47:58;;;;;;;0.70;0.70;;;17.90;64.60;;;;;;5037384;28;20100;-80
2023/04/09 09:50:24;;;;;;;0.70;0.70;;;18.00;64.60;;;;;;5041722;28;20128;-83
2023/04/09 09:52:50;;;;;;;0.60;0.60;;;17.90;64.60;;;;;;5042486;28;20044;-85
2023/04/09 09:55:15;;;;;;;0.63;0.63;;;18.00;64.70;;;;;;5037864;28;20128;-81
2023/04/09 09:57:43;;;;;;;0.80;0.70;;;18.00;64.70;;;;;;5021562;28;20430;-83
2023/04/09 10:00:09;;;;;;;0.70;0.70;;;18.00;65.40;;;;;;5023116;28;20057;-83
2023/04/09 10:02:50;;;;;;;0.98;0.98;;;18.10;66.50;;;;;;4340248;28;10000823;-82
2023/04/09 10:05:15;;;;;;;1.42;1.33;;;18.10;65.50;;;;;;4669153;28;10000380;-83
2023/04/09 10:07:41;;;;;;;1.30;1.20;;;18.10;65.50;;;;;;5034724;28;20048;-82
2023/04/09 10:10:07;;;;;;;1.30;1.20;;;18.00;65.60;;;;;;5019725;28;20140;-83
2023/04/09 10:12:32;;;;;;;1.40;1.30;;;18.10;65.80;;;;;;5037117;28;20091;-82
2023/04/09 10:15:03;;;;;;;1.60;1.50;;;18.10;66.00;;;;;;5036459;28;20033;-83
2023/04/09 10:17:29;;;;;;;1.55;1.23;;;18.10;66.10;;;;;;5019320;28;20044;-81
2023/04/09 10:20:20;;;;;;;1.95;1.33;;;18.20;66.10;;;;;;5032454;28;20029;-81
2023/04/09 10:22:47;;;;;;;2.00;1.23;;;18.20;66.20;;;;;;4961332;28;20114;-81
2023/04/09 10:25:13;;;;;;;1.25;1.15;;;18.20;65.20;;;;;;4946307;28;20050;-81
2023/04/09 10:27:39;;;;;;;0.93;0.93;;;18.20;64.40;;;;;;4945294;28;20117;-81
2023/04/09 10:30:09;;;;;;;1.17;1.17;;;18.10;64.10;;;;;;4957179;28;20080;-80
2023/04/09 10:32:34;;;;;;;1.70;1.42;;;18.10;63.50;;;;;;4966999;28;20122;-79
2023/04/09 10:35:01;;;;;;;1.55;1.45;;;18.20;63.00;;;;;;4961016;28;20043;-79
2023/04/09 10:37:27;;;;;;;1.83;1.45;;;18.10;62.50;;;;;;4970980;28;20044;-80
2023/04/09 10:39:53;;;;;;;1.33;1.25;;;18.10;62.80;;;;;;4983302;28;20546;-79
2023/04/09 10:42:39;;;;;;;1.27;1.17;;;18.10;63.00;;;;;;4965522;28;20043;-80
2023/04/09 10:45:05;;;;;;;2.33;1.30;;;18.10;62.50;;;;;;4977845;28;20042;-80
2023/04/09 10:47:35;;;;;;;1.30;1.20;;;18.10;62.70;;;;;;4982134;28;20127;-79
2023/04/09 10:50:20;;;;;;;1.25;1.17;;;18.10;62.50;;;;;;4982242;28;20648;-79
2023/04/09 10:52:46;;;;;;;1.33;1.30;;;18.10;61.60;;;;;;4967468;28;20050;-80
2023/04/09 10:55:39;;;;;;;1.75;1.30;;;18.00;61.20;;;;;;4962108;28;20058;-79
2023/04/09 10:58:09;;;;;;;1.50;1.40;;;18.10;62.40;;;;;;4981633;28;20096;-79
2023/04/09 11:00:41;;;;;;;1.38;1.30;;;18.10;61.90;;;;;;4693293;28;10000474;-78
2023/04/09 11:03:32;;;;;;;1.20;1.20;;;18.10;61.50;;;;;;5043643;28;20486;-78
2023/04/09 11:06:02;;;;;;;1.17;1.17;;;18.10;61.90;;;;;;5058270;28;20513;-79
2023/04/09 11:08:29;;;;;;;1.23;1.23;;;18.10;62.00;;;;;;5040469;28;20056;-81
2023/04/09 11:10:57;;;;;;;1.73;1.63;;;18.10;61.80;;;;;;5056651;28;20036;-81
2023/04/09 11:13:22;;;;;;;1.40;1.30;;;18.10;61.80;;;;;;5043399;28;20052;-80
2023/04/09 11:15:48;;;;;;;1.20;1.20;;;18.10;62.00;;;;;;5027074;28;20056;-80
2023/04/09 11:18:18;;;;;;;0.93;0.93;;;18.20;62.40;;;;;;5040416;28;20147;-80
2023/04/09 11:20:44;;;;;;;0.90;0.90;;;18.20;62.60;;;;;;5024908;28;20533;-80
2023/04/09 11:23:09;;;;;;;1.02;1.02;;;18.20;62.70;;;;;;5043030;28;20563;-78
2023/04/09 11:25:35;;;;;;;1.05;0.90;;;18.20;62.80;;;;;;5026695;28;20441;-79
2023/04/09 11:28:04;;;;;;;1.02;1.02;;;18.20;63.00;;;;;;5060865;28;20513;-79
2023/04/09 11:30:30;;;;;;;1.00;0.90;;;18.20;63.00;;;;;;5044350;28;20152;-82
2023/04/09 11:32:55;;;;;;;1.00;1.00;;;18.20;63.20;;;;;;5044577;28;20123;-81
2023/04/09 11:35:21;;;;;;;1.13;1.08;;;18.20;63.10;;;;;;5009451;28;20050;-81
2023/04/09 11:37:47;;;;;;;1.20;1.02;;;18.30;63.10;;;;;;5027148;28;20044;-82
2023/04/09 11:40:14;;;;;;;1.13;1.02;;;18.20;63.20;;;;;;5065070;28;20094;-81
2023/04/09 11:42:40;;;;;;;0.82;0.82;;;18.30;63.20;;;;;;5063280;28;20044;-81
2023/04/09 11:45:06;;;;;;;1.08;0.70;;;18.30;63.20;;;;;;5046107;28;20564;-81
2023/04/09 11:47:32;;;;;;;1.33;1.00;;;18.30;63.20;;;;;;5026861;28;20068;-81
2023/04/09 11:49:58;;;;;;;0.98;0.98;;;18.30;63.20;;;;;;5047743;28;20072;-81
2023/04/09 11:52:23;;;;;;;0.70;0.70;;;18.30;63.20;;;;;;5029170;28;20048;-83
2023/04/09 11:54:49;;;;;;;0.80;0.80;;;18.30;63.30;;;;;;5047925;28;20091;-81
2023/04/09 11:57:15;;;;;;;0.68;0.68;;;18.30;63.40;;;;;;5060467;28;20044;-81
2023/04/09 11:59:40;;;;;;;2.10;0.85;;;18.20;63.40;;;;;;5046794;28;20474;-81
2023/04/09 12:02:06;;;;;;;0.82;0.82;;;18.20;63.30;;;;;;5043846;28;20035;-81
2023/04/09 12:04:32;;;;;;;0.60;0.60;;;18.30;63.40;;;;;;5030926;28;20044;-81
2023/04/09 12:06:58;;;;;;;0.85;0.85;;;18.30;63.30;;;;;;5027794;28;20037;-81
2023/04/09 12:09:23;;;;;;;1.08;0.90;;;18.30;63.40;;;;;;5047821;28;20044;-81
2023/04/09 12:11:49;;;;;;;0.93;0.70;;;18.30;63.40;;;;;;5027413;28;20410;-81
2023/04/09 12:14:16;;;;;;;0.60;0.60;;;18.30;63.40;;;;;;5043172;28;20049;-81
2023/04/09 12:16:44;;;;;;;0.57;0.57;;;18.30;63.40;;;;;;5043277;28;20075;-81
2023/04/09 12:19:11;;;;;;;0.50;0.50;;;18.30;63.50;;;;;;5042060;28;20094;-81
2023/04/09 12:21:49;;;;;;;0.60;0.60;;;18.20;63.50;;;;;;5043152;28;20572;-81
2023/04/09 12:24:18;;;;;;;0.65;0.65;;;18.20;63.50;;;;;;5041942;28;20460;-81
2023/04/09 12:26:44;;;;;;;0.70;0.70;;;18.30;63.60;;;;;;5043419;28;20045;-81
2023/04/09 12:29:10;;;;;;;0.70;0.70;;;18.20;63.60;;;;;;5040672;28;20147;-81
2023/04/09 12:31:36;;;;;;;0.70;0.70;;;18.20;63.50;;;;;;5044251;28;20133;-81
2023/04/09 12:34:01;;;;;;;1.05;1.02;;;18.20;63.60;;;;;;5044508;28;20426;-80
2023/04/09 12:36:27;;;;;;;0.45;0.45;;;18.20;63.50;;;;;;5041671;28;20044;-81
2023/04/09 12:38:52;;;;;;;0.70;0.70;;;18.20;63.40;;;;;;5042846;28;20040;-82
2023/04/09 12:41:18;;;;;;;0.90;0.90;;;18.30;63.50;;;;;;5040859;28;20460;-81
2023/04/09 12:43:44;;;;;;;0.60;0.60;;;18.30;63.60;;;;;;5041653;28;20033;-81
2023/04/09 12:46:10;;;;;;;0.50;0.50;;;18.30;63.60;;;;;;5043268;28;20045;-81